EIKY

Kerry Airport

Killarney, Ireland
TAF EIKY 221400Z 2215/2221 30009KT 9999 SCT015 BKN025 TEMPO 2215/2221 -SHRA BKN012 SCT018CB
Issued Valid From Valid To
Jan-22 @ 14:00 UTC
(3 hours ago)
Jan-22 @ 15:00 UTC
(2 hours ago)
Jan-22 @ 21:00 UTC
(in 4 hours)
Jan-22 @ 15:00 to Jan-22 @ 21:00
TAF EIKY 221400Z 2215/2221 30009KT 9999 SCT015 BKN025
Wind Visibility Clouds
300° at 9 knots 10,000+ meters
  • Scattered at 1,500' AGL
  • Broken at 2,500' AGL
Temporary Jan-22 @ 15:00 to Jan-22 @ 21:00
TEMPO 2215/2221 -SHRA BKN012 SCT018CB
Clouds Conditions
  • Broken at 1,200' AGL
  • Scattered at 1,800' AGL
  • Light Rain
TAF EIKY 221400Z 2215/2221 30009KT 9999 SCT015 BKN025 TEMPO 2215/2221 -SHRA BKN012 SCT018CB
Issued Jan-22 @ 14:00 UTC
(3 hours ago)
Valid From Jan-22 @ 15:00 UTC
(2 hours ago)
Valid To Jan-22 @ 21:00 UTC
(in 4 hours)
Jan-22 @ 15:00 - Jan-22 @ 21:00
Wind Visibility
300° at 9 knots 10,000+ meters
Clouds
  • Scattered at 1,500' AGL
  • Broken at 2,500' AGL
Temporary Jan-22 @ 15:00 - Jan-22 @ 21:00
Clouds
  • Broken at 1,200' AGL
  • Scattered at 1,800' AGL
Conditions
  • Light Rain